createdAt,value
2022-11-01T00:01:12.933Z,10.55
2022-11-01T00:04:00.036Z,10.40
2022-11-01T00:06:47.765Z,11.30
2022-11-01T00:09:36.443Z,9.98
2022-11-01T00:12:23.764Z,9.48
2022-11-01T00:15:10.856Z,11.15
2022-11-01T00:17:58.289Z,10.38
2022-11-01T00:20:46.943Z,9.43
2022-11-01T00:23:34.173Z,11.23
2022-11-01T00:26:25.644Z,12.05
2022-11-01T00:29:13.974Z,10.82
2022-11-01T00:32:01.549Z,10.07
2022-11-01T00:34:48.582Z,10.18
2022-11-01T00:37:35.769Z,10.57
2022-11-01T00:40:22.873Z,10.57
2022-11-01T00:43:11.747Z,11.60
2022-11-01T00:45:59.106Z,11.02
2022-11-01T00:48:46.238Z,10.32
2022-11-01T00:51:33.663Z,10.25
2022-11-01T00:54:20.936Z,11.07
2022-11-01T00:57:07.970Z,11.05
2022-11-01T00:59:56.392Z,9.88
2022-11-01T01:02:43.997Z,10.52
2022-11-01T01:05:31.634Z,10.05
2022-11-01T01:08:19.198Z,9.82
2022-11-01T01:11:06.827Z,9.63
2022-11-01T01:13:54.418Z,11.40
2022-11-01T01:16:43.111Z,11.50
2022-11-01T01:19:31.231Z,9.68
2022-11-01T01:22:18.614Z,9.82
2022-11-01T01:25:06.983Z,11.07
2022-11-01T01:27:54.084Z,10.60
2022-11-01T01:30:42.335Z,9.02
2022-11-01T01:33:30.867Z,11.27
2022-11-01T01:36:18.353Z,11.07
2022-11-01T01:39:05.673Z,10.27
2022-11-01T01:42:01.774Z,9.70
2022-11-01T01:45:25.063Z,10.88
2022-11-01T01:48:18.560Z,9.75
2022-11-01T01:51:11.454Z,8.80
2022-11-01T01:53:59.980Z,8.35
2022-11-01T01:56:47.096Z,9.98
2022-11-01T01:59:36.227Z,9.98
2022-11-01T02:02:23.987Z,10.07
2022-11-01T02:05:18.617Z,9.57
2022-11-01T02:08:09.127Z,9.63
2022-11-01T02:11:00.978Z,9.82
2022-11-01T02:13:49.026Z,9.90
2022-11-01T02:16:53.059Z,9.30
2022-11-01T02:20:17.725Z,9.13
2022-11-01T02:23:57.421Z,7.85
2022-11-01T02:27:13.906Z,8.65
2022-11-01T02:30:18.427Z,8.77
2022-11-01T02:33:21.051Z,9.70
2022-11-01T02:36:15.411Z,8.73
2022-11-01T02:39:09.643Z,9.43
2022-11-01T02:42:04.633Z,8.98
2022-11-01T02:44:57.959Z,8.93
2022-11-01T02:47:45.158Z,9.60
2022-11-01T02:50:38.531Z,10.30
2022-11-01T02:53:25.536Z,8.60
2022-11-01T02:56:13.196Z,9.10
2022-11-01T02:59:02.022Z,9.18
2022-11-01T03:01:55.139Z,9.13
2022-11-01T03:04:42.475Z,8.55
2022-11-01T03:07:31.313Z,7.80
2022-11-01T03:10:22.632Z,6.88
2022-11-01T03:13:29.177Z,6.22
2022-11-01T03:16:24.508Z,5.43
2022-11-01T03:19:29.691Z,5.53
2022-11-01T03:22:21.895Z,5.72
2022-11-01T03:25:29.677Z,5.78
2022-11-01T03:28:22.952Z,6.22
2022-11-01T03:31:15.086Z,5.60
2022-11-01T03:34:05.981Z,6.45
2022-11-01T03:36:57.846Z,6.82
2022-11-01T03:39:49.763Z,5.00
2022-11-01T03:42:40.266Z,5.28
2022-11-01T03:45:29.537Z,5.63
2022-11-01T03:48:16.766Z,6.57
2022-11-01T03:51:04.069Z,5.72
2022-11-01T03:53:50.943Z,6.22
2022-11-01T03:56:40.531Z,5.85
2022-11-01T03:59:29.140Z,5.35
2022-11-01T04:02:15.986Z,5.93
2022-11-01T04:05:03.468Z,6.22
2022-11-01T04:07:51.553Z,5.90
2022-11-01T04:10:38.571Z,5.47
2022-11-01T04:13:25.991Z,5.43
2022-11-01T04:16:32.256Z,5.43
2022-11-01T04:19:36.873Z,4.95
2022-11-01T04:22:24.722Z,4.90
2022-11-01T04:25:11.822Z,4.45
2022-11-01T04:27:59.604Z,6.22
2022-11-01T04:30:46.985Z,5.72
2022-11-01T04:33:35.313Z,6.10
2022-11-01T04:36:22.328Z,6.93
2022-11-01T04:39:10.575Z,6.05
2022-11-01T04:41:57.686Z,5.10
2022-11-01T04:44:46.830Z,5.50
2022-11-01T04:47:34.002Z,6.82
2022-11-01T04:50:23.165Z,6.20
2022-11-01T04:53:11.128Z,5.97
2022-11-01T04:55:58.089Z,5.80
2022-11-01T04:58:46.689Z,5.55
2022-11-01T05:01:35.348Z,5.10
2022-11-01T05:04:22.869Z,5.85
2022-11-01T05:07:11.140Z,6.40
2022-11-01T05:09:58.481Z,6.07
2022-11-01T05:12:45.647Z,4.85
2022-11-01T05:15:32.803Z,5.32
2022-11-01T05:18:20.063Z,6.05
2022-11-01T05:21:07.412Z,4.93
2022-11-01T05:23:56.248Z,4.63
2022-11-01T05:26:44.032Z,4.82
2022-11-01T05:29:33.188Z,5.43
2022-11-01T05:32:20.890Z,4.80
2022-11-01T05:35:08.501Z,4.57
2022-11-01T05:37:56.594Z,4.65
2022-11-01T05:40:45.237Z,3.78
2022-11-01T05:43:32.448Z,3.63
2022-11-01T05:46:19.694Z,4.35
2022-11-01T05:49:07.012Z,3.80
2022-11-01T05:51:54.150Z,3.70
2022-11-01T05:54:41.270Z,4.22
2022-11-01T05:57:33.447Z,4.60
2022-11-01T06:00:21.250Z,4.55
2022-11-01T06:03:08.726Z,3.92
2022-11-01T06:05:55.893Z,4.68
2022-11-01T06:08:43.344Z,4.05
2022-11-01T06:11:30.914Z,4.47
2022-11-01T06:14:19.293Z,4.10
2022-11-01T06:17:06.722Z,4.32
2022-11-01T06:19:54.048Z,4.75
2022-11-01T06:22:41.347Z,4.90
2022-11-01T06:25:29.607Z,4.43
2022-11-01T06:28:16.658Z,4.50
2022-11-01T06:33:58.234Z,4.45
2022-11-01T06:36:45.449Z,4.25
2022-11-01T06:39:32.496Z,4.18
2022-11-01T06:42:19.867Z,4.25
2022-11-01T06:45:07.876Z,3.97
2022-11-01T06:47:56.169Z,4.70
2022-11-01T06:50:43.608Z,4.47
2022-11-01T06:53:31.732Z,4.20
2022-11-01T06:56:18.893Z,4.75
2022-11-01T06:59:06.316Z,4.18
2022-11-01T07:01:53.531Z,4.57
2022-11-01T07:04:23.898Z,3.92
2022-11-01T07:06:52.545Z,3.92
2022-11-01T07:09:21.241Z,4.03
2022-11-01T07:11:49.851Z,4.05
2022-11-01T07:14:18.383Z,4.00
2022-11-01T07:16:46.964Z,3.70
2022-11-01T07:19:15.560Z,3.47
2022-11-01T07:21:45.683Z,3.90
2022-11-01T07:24:14.274Z,3.90
2022-11-01T07:26:42.888Z,3.80
2022-11-01T07:29:11.470Z,3.60
2022-11-01T07:31:41.019Z,3.60
2022-11-01T07:34:09.812Z,3.47
2022-11-01T07:36:38.388Z,3.55
2022-11-01T07:39:08.376Z,3.60
2022-11-01T07:41:37.018Z,3.30
2022-11-01T07:44:06.251Z,3.42
2022-11-01T07:46:34.803Z,3.90
2022-11-01T07:49:03.488Z,3.80
2022-11-01T07:51:32.038Z,3.60
2022-11-01T07:56:36.065Z,3.60
2022-11-01T07:59:04.811Z,3.63
2022-11-01T08:01:33.587Z,3.17
2022-11-01T08:04:03.063Z,3.50
2022-11-01T08:06:31.740Z,2.80
2022-11-01T08:09:00.299Z,3.38
2022-11-01T08:11:29.968Z,3.38
2022-11-01T08:14:02.928Z,3.28
2022-11-01T08:16:34.862Z,3.17
2022-11-01T08:19:03.471Z,3.03
2022-11-01T08:21:32.086Z,3.50
2022-11-01T08:24:00.711Z,3.30
2022-11-01T08:26:29.307Z,3.22
2022-11-01T08:28:59.326Z,3.25
2022-11-01T08:31:27.977Z,3.13
2022-11-01T08:33:56.619Z,3.20
2022-11-01T08:36:25.213Z,2.85
2022-11-01T08:38:53.809Z,3.10
2022-11-01T08:41:23.669Z,3.08
2022-11-01T08:43:52.324Z,2.97
2022-11-01T08:46:22.413Z,3.33
2022-11-01T08:48:52.360Z,2.80
2022-11-01T08:51:25.758Z,2.88
2022-11-01T08:53:57.251Z,2.67
2022-11-01T08:56:27.520Z,3.13
2022-11-01T08:58:57.786Z,2.90
2022-11-01T09:01:28.057Z,2.97
2022-11-01T09:03:58.387Z,2.67
2022-11-01T09:06:29.027Z,2.67
2022-11-01T09:09:00.374Z,2.90
2022-11-01T09:11:30.529Z,3.13
2022-11-01T09:13:59.166Z,2.85
2022-11-01T09:16:29.302Z,2.78
2022-11-01T09:19:01.735Z,2.55
2022-11-01T09:21:31.737Z,2.53
2022-11-01T09:24:00.945Z,2.80
2022-11-01T09:26:29.587Z,2.78
2022-11-01T09:29:00.088Z,2.90
2022-11-01T09:31:30.034Z,3.00
2022-11-01T09:34:00.347Z,2.63
2022-11-01T09:36:30.159Z,2.70
2022-11-01T09:38:59.537Z,2.50
2022-11-01T09:41:34.838Z,3.00
2022-11-01T09:44:06.513Z,2.92
2022-11-01T09:46:45.197Z,2.70
2022-11-01T09:49:23.201Z,3.13
2022-11-01T09:51:52.289Z,2.90
2022-11-01T09:54:24.502Z,2.67
2022-11-01T09:57:05.148Z,3.00
2022-11-01T09:59:38.697Z,2.50
2022-11-01T10:02:58.460Z,2.08
2022-11-01T10:05:48.880Z,2.10
2022-11-01T10:08:36.289Z,2.10
2022-11-01T10:11:39.452Z,2.55
2022-11-01T10:14:23.161Z,2.47
2022-11-01T10:17:07.403Z,2.30
2022-11-01T10:19:38.389Z,2.08
2022-11-01T10:22:15.313Z,1.92
2022-11-01T10:24:51.105Z,2.53
2022-11-01T10:27:26.571Z,2.78
2022-11-01T10:30:01.372Z,2.28
2022-11-01T10:32:36.467Z,2.17
2022-11-01T10:35:15.981Z,2.28
2022-11-01T10:38:04.050Z,2.40
2022-11-01T10:40:43.290Z,2.50
2022-11-01T10:43:17.270Z,2.70
2022-11-01T10:45:50.006Z,2.35
2022-11-01T10:48:30.714Z,2.40
2022-11-01T10:51:03.765Z,2.00
2022-11-01T10:53:38.924Z,2.42
2022-11-01T10:56:12.422Z,2.08
2022-11-01T10:58:47.940Z,2.58
2022-11-01T11:01:22.068Z,2.45
2022-11-01T11:03:52.294Z,2.30
2022-11-01T11:06:22.506Z,2.10
2022-11-01T11:08:52.994Z,2.03
2022-11-01T11:11:35.447Z,1.80
2022-11-01T11:14:07.287Z,2.65
2022-11-01T11:16:41.523Z,2.58
2022-11-01T11:19:21.205Z,2.38
2022-11-01T11:21:54.251Z,6.30
2022-11-01T11:24:25.765Z,4.75
2022-11-01T11:26:56.645Z,3.70
2022-11-01T11:29:38.689Z,2.30
2022-11-01T11:32:15.944Z,2.38
2022-11-01T11:34:44.758Z,2.65
2022-11-01T11:37:23.116Z,2.05
2022-11-01T11:40:15.173Z,2.13
2022-11-01T11:42:44.413Z,2.35
2022-11-01T11:45:24.824Z,2.60
2022-11-01T11:47:53.598Z,2.28
2022-11-01T11:50:37.895Z,1.98
2022-11-01T11:53:20.233Z,1.92
2022-11-01T11:55:54.566Z,1.50
2022-11-01T11:58:30.076Z,1.77
2022-11-01T12:01:05.754Z,2.17
2022-11-01T12:03:51.290Z,1.90
2022-11-01T12:06:22.833Z,2.00
2022-11-01T12:08:54.953Z,1.52
2022-11-01T12:11:24.602Z,1.85
2022-11-01T12:14:03.652Z,1.90
2022-11-01T12:16:40.835Z,2.45
2022-11-01T12:19:25.932Z,2.00
2022-11-01T12:21:55.888Z,2.47
2022-11-01T12:24:29.006Z,2.20
2022-11-01T12:27:03.763Z,2.17
2022-11-01T12:29:38.800Z,2.00
2022-11-01T12:32:14.503Z,1.80
2022-11-01T12:34:45.942Z,1.90
2022-11-01T12:37:20.617Z,1.73
2022-11-01T12:39:57.183Z,2.10
2022-11-01T12:42:30.915Z,1.75
2022-11-01T12:45:07.693Z,1.70
2022-11-01T12:47:43.430Z,1.70
2022-11-01T12:50:21.101Z,1.73
2022-11-01T12:52:54.307Z,1.50
2022-11-01T12:55:32.830Z,1.65
2022-11-01T12:58:03.461Z,2.33
2022-11-01T13:01:03.700Z,1.92
2022-11-01T13:03:46.777Z,1.70
2022-11-01T13:06:34.459Z,1.80
2022-11-01T13:09:12.944Z,1.80
2022-11-01T13:11:52.281Z,1.77
2022-11-01T13:14:39.279Z,1.98
2022-11-01T13:17:17.281Z,1.90
2022-11-01T13:19:53.989Z,1.63
2022-11-01T13:22:33.884Z,1.52
2022-11-01T13:25:07.842Z,1.65
2022-11-01T13:27:43.469Z,1.92
2022-11-01T13:30:15.684Z,1.90
2022-11-01T13:32:50.894Z,1.70
2022-11-01T13:35:49.378Z,1.80
2022-11-01T13:38:29.930Z,2.17
2022-11-01T13:41:09.743Z,2.40
2022-11-01T13:43:43.482Z,1.70
2022-11-01T13:46:57.113Z,2.35
2022-11-01T13:50:10.642Z,1.95
2022-11-01T13:52:46.915Z,1.67
2022-11-01T13:55:24.230Z,1.75
2022-11-01T13:57:53.501Z,1.90
2022-11-01T14:00:43.133Z,5.88
2022-11-01T14:03:27.890Z,3.15
2022-11-01T14:06:37.226Z,3.13
2022-11-01T14:09:30.754Z,2.38
2022-11-01T14:12:13.204Z,2.15
2022-11-01T14:14:52.160Z,1.90
2022-11-01T14:18:11.183Z,2.10
2022-11-01T14:20:52.592Z,2.25
2022-11-01T14:24:01.857Z,2.20
2022-11-01T14:27:07.978Z,2.10
2022-11-01T14:29:37.242Z,1.80
2022-11-01T14:32:07.028Z,1.85
2022-11-01T14:34:39.461Z,1.92
2022-11-01T14:37:25.859Z,2.65
2022-11-01T14:40:21.818Z,2.10
2022-11-01T14:42:52.691Z,1.70
2022-11-01T14:45:32.212Z,2.15
2022-11-01T14:48:08.092Z,1.90
2022-11-01T14:50:48.015Z,2.00
2022-11-01T14:53:24.831Z,1.60
2022-11-01T14:56:08.121Z,1.70
2022-11-01T14:58:37.280Z,1.63
2022-11-01T15:01:11.873Z,1.63
2022-11-01T15:03:40.628Z,1.65
2022-11-01T15:06:24.492Z,1.90
2022-11-01T15:08:53.799Z,2.13
2022-11-01T15:11:22.505Z,2.10
2022-11-01T15:13:53.340Z,1.95
2022-11-01T15:16:26.347Z,1.98
2022-11-01T15:19:00.664Z,1.60
2022-11-01T15:21:31.752Z,1.67
2022-11-01T15:24:03.023Z,1.73
2022-11-01T15:26:34.550Z,2.28
2022-11-01T15:29:05.970Z,3.35
2022-11-01T15:31:36.255Z,2.75
2022-11-01T15:34:19.793Z,2.35
2022-11-01T15:36:49.815Z,2.15
2022-11-01T15:39:21.658Z,1.90
2022-11-01T15:41:52.201Z,2.35
2022-11-01T15:44:23.321Z,1.95
2022-11-01T15:46:55.077Z,2.08
2022-11-01T15:49:29.423Z,1.67
2022-11-01T15:52:03.077Z,1.63
2022-11-01T15:54:41.059Z,2.10
2022-11-01T15:57:19.495Z,2.72
2022-11-01T15:59:56.633Z,2.58
2022-11-01T16:02:31.290Z,4.68
2022-11-01T16:05:01.403Z,4.18
2022-11-01T16:07:33.375Z,3.70
2022-11-01T16:10:05.614Z,6.97
2022-11-01T16:12:38.623Z,7.32
2022-11-01T16:15:19.292Z,8.45
2022-11-01T16:17:48.643Z,9.32
2022-11-01T16:20:37.263Z,10.00
2022-11-01T16:23:08.718Z,6.90
2022-11-01T16:25:39.387Z,5.20
2022-11-01T16:28:29.658Z,4.93
2022-11-01T16:30:58.909Z,5.20
2022-11-01T16:33:31.934Z,7.07
2022-11-01T16:36:03.228Z,7.05
2022-11-01T16:38:44.496Z,6.07
2022-11-01T16:41:20.413Z,4.78
2022-11-01T16:43:50.556Z,6.40
2022-11-01T16:46:20.471Z,6.05
2022-11-01T16:48:58.469Z,4.80
2022-11-01T16:51:28.788Z,4.55
2022-11-01T16:54:01.342Z,4.20
2022-11-01T16:56:37.684Z,5.38
2022-11-01T16:59:26.691Z,3.60
2022-11-01T17:01:58.402Z,3.70
2022-11-01T17:04:28.351Z,3.55
2022-11-01T17:06:59.102Z,3.80
2022-11-01T17:09:33.818Z,3.90
2022-11-01T17:12:02.436Z,3.97
2022-11-01T17:14:32.079Z,4.05
2022-11-01T17:17:07.143Z,3.20
2022-11-01T17:19:39.057Z,3.15
2022-11-01T17:22:13.236Z,4.00
2022-11-01T17:24:43.222Z,3.55
2022-11-01T17:27:11.833Z,3.50
2022-11-01T17:29:40.395Z,3.20
2022-11-01T17:32:11.070Z,2.75
2022-11-01T17:34:40.267Z,3.05
2022-11-01T17:37:08.998Z,3.63
2022-11-01T17:39:38.175Z,5.22
2022-11-01T17:42:09.602Z,4.70
2022-11-01T17:44:38.262Z,5.65
2022-11-01T17:47:06.927Z,8.80
2022-11-01T17:49:35.513Z,9.38
2022-11-01T17:52:04.495Z,10.57
2022-11-01T17:54:33.319Z,13.35
2022-11-01T17:57:01.941Z,11.63
2022-11-01T17:59:31.941Z,10.13
2022-11-01T18:02:00.685Z,8.98
2022-11-01T18:04:34.053Z,7.78
2022-11-01T18:07:06.685Z,11.63
2022-11-01T18:09:37.400Z,5.90
2022-11-01T18:12:11.882Z,4.60
2022-11-01T18:14:55.424Z,3.90
2022-11-01T18:17:39.350Z,3.80
2022-11-01T18:20:22.107Z,3.60
2022-11-01T18:22:55.842Z,3.03
2022-11-01T18:25:31.086Z,3.25
2022-11-01T18:28:02.529Z,4.00
2022-11-01T18:30:32.764Z,4.43
2022-11-01T18:33:06.913Z,5.85
2022-11-01T18:35:41.278Z,4.43
2022-11-01T18:38:21.904Z,3.45
2022-11-01T18:40:59.404Z,3.35
2022-11-01T18:43:31.296Z,3.30
2022-11-01T18:46:25.030Z,4.32
2022-11-01T18:48:59.912Z,5.55
2022-11-01T18:51:31.299Z,4.82
2022-11-01T18:54:28.131Z,4.53
2022-11-01T18:56:58.934Z,6.53
2022-11-01T18:59:30.787Z,5.45
2022-11-01T19:02:07.284Z,3.40
2022-11-01T19:04:37.498Z,4.00
2022-11-01T19:07:13.588Z,6.00
2022-11-01T19:09:44.731Z,6.82
2022-11-01T19:12:17.677Z,8.98
2022-11-01T19:14:48.708Z,9.82
2022-11-01T19:17:25.347Z,9.55
2022-11-01T19:19:55.927Z,9.70
2022-11-01T19:22:38.255Z,9.23
2022-11-01T19:25:20.819Z,7.97
2022-11-01T19:27:50.797Z,8.00
2022-11-01T19:30:24.826Z,6.50
2022-11-01T19:32:57.115Z,6.95
2022-11-01T19:35:25.872Z,6.32
2022-11-01T19:37:56.361Z,5.05
2022-11-01T19:40:29.165Z,4.40
2022-11-01T19:43:01.719Z,4.57
2022-11-01T19:45:34.742Z,4.50
2022-11-01T19:48:08.276Z,4.23
2022-11-01T19:50:42.168Z,4.30
2022-11-01T19:53:23.225Z,5.88
2022-11-01T19:55:55.500Z,7.57
2022-11-01T19:58:37.309Z,9.05
2022-11-01T20:01:33.539Z,9.48
2022-11-01T20:04:08.344Z,8.82
2022-11-01T20:06:42.303Z,9.02
2022-11-01T20:09:15.178Z,8.10
2022-11-01T20:11:43.998Z,7.90
2022-11-01T20:14:13.298Z,7.55
2022-11-01T20:16:42.231Z,8.93
2022-11-01T20:19:16.396Z,8.38
2022-11-01T20:21:46.965Z,8.95
2022-11-01T20:24:16.559Z,8.10
2022-11-01T20:26:45.291Z,7.20
2022-11-01T20:29:15.607Z,8.07
2022-11-01T20:31:44.642Z,7.22
2022-11-01T20:34:14.780Z,8.10
2022-11-01T20:36:46.863Z,8.77
2022-11-01T20:39:24.183Z,7.40
2022-11-01T20:41:53.945Z,7.90
2022-11-01T20:44:23.224Z,6.60
2022-11-01T20:46:51.932Z,4.37
2022-11-01T20:49:22.506Z,4.75
2022-11-01T20:51:51.203Z,5.40
2022-11-01T20:54:19.930Z,5.78
2022-11-01T20:56:48.617Z,5.60
2022-11-01T20:59:20.428Z,4.65
2022-11-01T21:01:50.513Z,3.88
2022-11-01T21:04:39.956Z,4.63
2022-11-01T21:07:31.099Z,4.10
2022-11-01T21:10:31.249Z,3.47
2022-11-01T21:13:27.142Z,3.55
2022-11-01T21:16:24.275Z,4.10
2022-11-01T21:19:18.881Z,4.97
2022-11-01T21:22:16.746Z,4.40
2022-11-01T21:25:04.628Z,4.43
2022-11-01T21:27:51.760Z,4.43
2022-11-01T21:30:38.787Z,4.17
2022-11-01T21:33:36.540Z,4.37
2022-11-01T21:36:35.438Z,4.00
2022-11-01T21:39:26.989Z,4.87
2022-11-01T21:42:32.774Z,3.97
2022-11-01T21:45:30.952Z,5.00
2022-11-01T21:48:23.906Z,4.20
2022-11-01T21:51:11.191Z,4.50
2022-11-01T21:54:01.630Z,5.10
2022-11-01T21:56:52.749Z,4.73
2022-11-01T21:59:40.643Z,4.40
2022-11-01T22:02:27.623Z,4.43
2022-11-01T22:05:15.246Z,4.30
2022-11-01T22:08:02.678Z,5.17
2022-11-01T22:10:49.697Z,5.40
2022-11-01T22:13:38.171Z,5.20
2022-11-01T22:16:25.605Z,4.90
2022-11-01T22:19:12.846Z,4.73
2022-11-01T22:22:00.215Z,6.23
2022-11-01T22:24:47.386Z,6.33
2022-11-01T22:27:34.780Z,5.93
2022-11-01T22:30:23.187Z,6.60
2022-11-01T22:33:11.733Z,6.57
2022-11-01T22:35:59.203Z,5.87
2022-11-01T22:38:46.603Z,6.07
2022-11-01T22:41:35.885Z,6.90
2022-11-01T22:44:28.416Z,7.00
2022-11-01T22:47:28.090Z,6.23
2022-11-01T22:50:25.364Z,5.60
2022-11-01T22:53:14.723Z,5.83
2022-11-01T22:56:02.003Z,5.53
2022-11-01T22:58:49.006Z,5.70
2022-11-01T23:01:36.449Z,5.23
2022-11-01T23:04:25.013Z,4.43
2022-11-01T23:07:32.936Z,4.40
2022-11-01T23:10:30.133Z,3.67
2022-11-01T23:13:41.395Z,3.27
2022-11-01T23:16:32.065Z,2.60
2022-11-01T23:19:19.586Z,3.57
2022-11-01T23:22:14.954Z,2.83
2022-11-01T23:25:02.036Z,3.63
2022-11-01T23:27:49.415Z,4.00
2022-11-01T23:30:37.000Z,4.03
2022-11-01T23:33:36.691Z,4.77
2022-11-01T23:36:27.995Z,4.97
2022-11-01T23:39:16.841Z,4.97
2022-11-01T23:42:04.376Z,3.20
2022-11-01T23:44:55.039Z,2.60
2022-11-01T23:47:43.022Z,2.43
2022-11-01T23:50:33.964Z,2.43
2022-11-01T23:53:30.644Z,2.43
2022-11-01T23:56:21.209Z,2.50
2022-11-01T23:59:08.420Z,3.60
